sensor_id;sensor_type;location;lat;lon;timestamp;P1;durP1;ratioP1;P2;durP2;ratioP2
21266;SDS011;10791;53.108;18.326;2023-03-29T00:01:29;8.50;;;3.67;;
21266;SDS011;10791;53.108;18.326;2023-03-29T00:06:38;8.07;;;3.63;;
21266;SDS011;10791;53.108;18.326;2023-03-29T00:11:43;12.90;;;3.57;;
21266;SDS011;10791;53.108;18.326;2023-03-29T00:16:47;7.73;;;3.37;;
21266;SDS011;10791;53.108;18.326;2023-03-29T00:21:50;12.37;;;4.63;;
21266;SDS011;10791;53.108;18.326;2023-03-29T00:26:54;9.27;;;4.43;;
21266;SDS011;10791;53.108;18.326;2023-03-29T00:31:57;8.60;;;3.80;;
21266;SDS011;10791;53.108;18.326;2023-03-29T00:37:02;8.13;;;3.60;;
21266;SDS011;10791;53.108;18.326;2023-03-29T00:42:08;10.03;;;4.23;;
21266;SDS011;10791;53.108;18.326;2023-03-29T00:47:15;11.10;;;4.80;;
21266;SDS011;10791;53.108;18.326;2023-03-29T00:52:21;13.47;;;5.23;;
21266;SDS011;10791;53.108;18.326;2023-03-29T00:57:25;9.63;;;4.77;;
21266;SDS011;10791;53.108;18.326;2023-03-29T01:02:32;10.33;;;5.20;;
21266;SDS011;10791;53.108;18.326;2023-03-29T01:12:45;9.00;;;4.17;;
21266;SDS011;10791;53.108;18.326;2023-03-29T01:17:53;10.43;;;4.37;;
21266;SDS011;10791;53.108;18.326;2023-03-29T01:28:30;10.93;;;5.07;;
21266;SDS011;10791;53.108;18.326;2023-03-29T01:33:41;10.20;;;4.33;;
21266;SDS011;10791;53.108;18.326;2023-03-29T01:38:56;14.33;;;5.23;;
21266;SDS011;10791;53.108;18.326;2023-03-29T01:44:02;9.77;;;5.10;;
21266;SDS011;10791;53.108;18.326;2023-03-29T01:54:31;11.73;;;3.90;;
21266;SDS011;10791;53.108;18.326;2023-03-29T01:59:39;7.60;;;4.23;;
21266;SDS011;10791;53.108;18.326;2023-03-29T02:04:49;9.23;;;4.27;;
21266;SDS011;10791;53.108;18.326;2023-03-29T02:09:55;6.10;;;3.17;;
21266;SDS011;10791;53.108;18.326;2023-03-29T02:15:00;9.67;;;4.03;;
21266;SDS011;10791;53.108;18.326;2023-03-29T02:20:05;7.63;;;3.53;;
21266;SDS011;10791;53.108;18.326;2023-03-29T02:25:23;7.57;;;3.87;;
21266;SDS011;10791;53.108;18.326;2023-03-29T02:30:29;11.13;;;4.83;;
21266;SDS011;10791;53.108;18.326;2023-03-29T02:35:57;12.93;;;4.83;;
21266;SDS011;10791;53.108;18.326;2023-03-29T02:41:05;15.33;;;4.97;;
21266;SDS011;10791;53.108;18.326;2023-03-29T02:46:11;13.73;;;4.67;;
21266;SDS011;10791;53.108;18.326;2023-03-29T02:51:17;17.37;;;6.57;;
21266;SDS011;10791;53.108;18.326;2023-03-29T02:56:24;17.03;;;5.70;;
21266;SDS011;10791;53.108;18.326;2023-03-29T03:01:28;8.50;;;4.07;;
21266;SDS011;10791;53.108;18.326;2023-03-29T03:06:31;9.53;;;3.50;;
21266;SDS011;10791;53.108;18.326;2023-03-29T03:11:35;14.13;;;4.83;;
21266;SDS011;10791;53.108;18.326;2023-03-29T03:16:38;9.63;;;4.73;;
21266;SDS011;10791;53.108;18.326;2023-03-29T03:21:41;10.93;;;5.43;;
21266;SDS011;10791;53.108;18.326;2023-03-29T03:26:45;20.40;;;7.23;;
21266;SDS011;10791;53.108;18.326;2023-03-29T03:31:49;21.33;;;8.23;;
21266;SDS011;10791;53.108;18.326;2023-03-29T03:36:55;22.47;;;9.00;;
21266;SDS011;10791;53.108;18.326;2023-03-29T03:41:58;19.60;;;9.53;;
21266;SDS011;10791;53.108;18.326;2023-03-29T03:47:03;30.37;;;10.40;;
21266;SDS011;10791;53.108;18.326;2023-03-29T03:52:07;31.57;;;9.90;;
21266;SDS011;10791;53.108;18.326;2023-03-29T03:57:10;37.33;;;12.00;;
21266;SDS011;10791;53.108;18.326;2023-03-29T04:02:14;37.70;;;12.30;;
21266;SDS011;10791;53.108;18.326;2023-03-29T04:07:17;43.53;;;11.83;;
21266;SDS011;10791;53.108;18.326;2023-03-29T04:12:21;30.97;;;12.00;;
21266;SDS011;10791;53.108;18.326;2023-03-29T04:17:24;25.10;;;9.40;;
21266;SDS011;10791;53.108;18.326;2023-03-29T04:22:28;21.93;;;9.60;;
21266;SDS011;10791;53.108;18.326;2023-03-29T04:27:32;17.30;;;7.93;;
21266;SDS011;10791;53.108;18.326;2023-03-29T04:32:35;14.03;;;5.87;;
21266;SDS011;10791;53.108;18.326;2023-03-29T04:37:39;16.30;;;6.93;;
21266;SDS011;10791;53.108;18.326;2023-03-29T04:42:43;21.40;;;7.50;;
21266;SDS011;10791;53.108;18.326;2023-03-29T04:47:49;13.83;;;6.77;;
21266;SDS011;10791;53.108;18.326;2023-03-29T04:52:55;23.50;;;7.27;;
21266;SDS011;10791;53.108;18.326;2023-03-29T04:58:01;18.53;;;8.13;;
21266;SDS011;10791;53.108;18.326;2023-03-29T05:03:06;23.13;;;9.43;;
21266;SDS011;10791;53.108;18.326;2023-03-29T05:08:12;20.23;;;8.87;;
21266;SDS011;10791;53.108;18.326;2023-03-29T05:13:16;22.20;;;8.07;;
21266;SDS011;10791;53.108;18.326;2023-03-29T05:18:19;20.87;;;8.47;;
21266;SDS011;10791;53.108;18.326;2023-03-29T05:23:22;17.40;;;8.60;;
21266;SDS011;10791;53.108;18.326;2023-03-29T05:28:26;26.87;;;10.03;;
21266;SDS011;10791;53.108;18.326;2023-03-29T05:33:30;27.97;;;11.03;;
21266;SDS011;10791;53.108;18.326;2023-03-29T05:38:33;28.73;;;14.13;;
21266;SDS011;10791;53.108;18.326;2023-03-29T05:43:37;54.17;;;21.07;;
21266;SDS011;10791;53.108;18.326;2023-03-29T05:48:41;58.97;;;20.40;;
21266;SDS011;10791;53.108;18.326;2023-03-29T05:53:44;51.63;;;18.63;;
21266;SDS011;10791;53.108;18.326;2023-03-29T05:58:47;26.20;;;10.90;;
21266;SDS011;10791;53.108;18.326;2023-03-29T06:03:57;19.23;;;10.27;;
21266;SDS011;10791;53.108;18.326;2023-03-29T06:09:02;23.17;;;8.40;;
21266;SDS011;10791;53.108;18.326;2023-03-29T06:14:07;14.20;;;7.30;;
21266;SDS011;10791;53.108;18.326;2023-03-29T06:19:10;22.17;;;7.43;;
21266;SDS011;10791;53.108;18.326;2023-03-29T06:24:14;19.83;;;8.93;;
21266;SDS011;10791;53.108;18.326;2023-03-29T06:29:17;21.57;;;8.63;;
21266;SDS011;10791;53.108;18.326;2023-03-29T06:34:21;16.00;;;7.33;;
21266;SDS011;10791;53.108;18.326;2023-03-29T06:39:25;17.33;;;7.87;;
21266;SDS011;10791;53.108;18.326;2023-03-29T06:44:28;22.97;;;8.63;;
21266;SDS011;10791;53.108;18.326;2023-03-29T06:49:31;35.13;;;12.03;;
21266;SDS011;10791;53.108;18.326;2023-03-29T06:54:35;23.63;;;9.37;;
21266;SDS011;10791;53.108;18.326;2023-03-29T06:59:38;15.47;;;6.33;;
21266;SDS011;10791;53.108;18.326;2023-03-29T07:04:42;16.73;;;7.27;;
21266;SDS011;10791;53.108;18.326;2023-03-29T07:09:46;19.67;;;7.83;;
21266;SDS011;10791;53.108;18.326;2023-03-29T07:14:55;18.70;;;7.77;;
21266;SDS011;10791;53.108;18.326;2023-03-29T07:19:58;14.20;;;6.20;;
21266;SDS011;10791;53.108;18.326;2023-03-29T07:25:01;10.60;;;5.07;;
21266;SDS011;10791;53.108;18.326;2023-03-29T07:30:05;10.27;;;4.60;;
21266;SDS011;10791;53.108;18.326;2023-03-29T07:35:13;8.77;;;4.37;;
21266;SDS011;10791;53.108;18.326;2023-03-29T07:40:17;6.37;;;3.50;;
21266;SDS011;10791;53.108;18.326;2023-03-29T07:45:25;9.50;;;4.17;;
21266;SDS011;10791;53.108;18.326;2023-03-29T07:50:32;10.57;;;4.33;;
21266;SDS011;10791;53.108;18.326;2023-03-29T07:55:36;6.03;;;2.83;;
21266;SDS011;10791;53.108;18.326;2023-03-29T08:00:48;13.60;;;3.43;;
21266;SDS011;10791;53.108;18.326;2023-03-29T08:05:52;5.67;;;2.73;;
21266;SDS011;10791;53.108;18.326;2023-03-29T08:10:55;7.07;;;2.27;;
21266;SDS011;10791;53.108;18.326;2023-03-29T08:15:59;5.37;;;2.70;;
21266;SDS011;10791;53.108;18.326;2023-03-29T08:21:02;3.63;;;1.90;;
21266;SDS011;10791;53.108;18.326;2023-03-29T08:26:07;6.47;;;2.63;;
21266;SDS011;10791;53.108;18.326;2023-03-29T08:31:11;10.73;;;3.20;;
21266;SDS011;10791;53.108;18.326;2023-03-29T08:36:15;10.10;;;3.57;;
21266;SDS011;10791;53.108;18.326;2023-03-29T08:47:05;8.10;;;2.93;;
21266;SDS011;10791;53.108;18.326;2023-03-29T08:52:02;8.80;;;3.13;;
21266;SDS011;10791;53.108;18.326;2023-03-29T08:57:19;7.47;;;2.83;;
21266;SDS011;10791;53.108;18.326;2023-03-29T09:02:29;6.00;;;2.63;;
21266;SDS011;10791;53.108;18.326;2023-03-29T09:07:35;9.37;;;3.80;;
21266;SDS011;10791;53.108;18.326;2023-03-29T09:18:19;7.37;;;2.90;;
21266;SDS011;10791;53.108;18.326;2023-03-29T09:28:59;4.90;;;2.73;;
21266;SDS011;10791;53.108;18.326;2023-03-29T09:34:09;5.23;;;2.50;;
21266;SDS011;10791;53.108;18.326;2023-03-29T09:39:24;6.00;;;2.67;;
21266;SDS011;10791;53.108;18.326;2023-03-29T09:44:30;7.23;;;3.17;;
21266;SDS011;10791;53.108;18.326;2023-03-29T09:49:39;5.13;;;1.97;;
21266;SDS011;10791;53.108;18.326;2023-03-29T09:54:45;3.70;;;1.60;;
21266;SDS011;10791;53.108;18.326;2023-03-29T09:59:49;4.93;;;2.10;;
21266;SDS011;10791;53.108;18.326;2023-03-29T10:04:54;5.83;;;1.90;;
21266;SDS011;10791;53.108;18.326;2023-03-29T10:09:57;7.43;;;2.00;;
21266;SDS011;10791;53.108;18.326;2023-03-29T10:15:01;6.93;;;2.33;;
21266;SDS011;10791;53.108;18.326;2023-03-29T10:20:11;5.50;;;2.43;;
21266;SDS011;10791;53.108;18.326;2023-03-29T10:25:23;6.20;;;2.30;;
21266;SDS011;10791;53.108;18.326;2023-03-29T10:30:36;6.00;;;2.17;;
21266;SDS011;10791;53.108;18.326;2023-03-29T10:35:42;3.53;;;2.00;;
21266;SDS011;10791;53.108;18.326;2023-03-29T10:40:47;4.47;;;2.20;;
21266;SDS011;10791;53.108;18.326;2023-03-29T10:45:53;6.30;;;2.47;;
21266;SDS011;10791;53.108;18.326;2023-03-29T10:51:01;4.33;;;2.20;;
21266;SDS011;10791;53.108;18.326;2023-03-29T11:01:21;5.47;;;2.47;;
21266;SDS011;10791;53.108;18.326;2023-03-29T11:06:52;6.00;;;2.40;;
21266;SDS011;10791;53.108;18.326;2023-03-29T11:17:46;5.40;;;2.73;;
21266;SDS011;10791;53.108;18.326;2023-03-29T11:33:36;4.17;;;1.93;;
21266;SDS011;10791;53.108;18.326;2023-03-29T11:38:59;3.50;;;1.70;;
21266;SDS011;10791;53.108;18.326;2023-03-29T11:44:24;5.03;;;2.20;;
21266;SDS011;10791;53.108;18.326;2023-03-29T11:49:39;3.43;;;1.90;;
21266;SDS011;10791;53.108;18.326;2023-03-29T11:54:59;5.17;;;2.03;;
21266;SDS011;10791;53.108;18.326;2023-03-29T12:05:33;4.47;;;2.70;;
21266;SDS011;10791;53.108;18.326;2023-03-29T12:16:38;6.30;;;2.57;;
21266;SDS011;10791;53.108;18.326;2023-03-29T12:21:50;4.63;;;2.77;;
21266;SDS011;10791;53.108;18.326;2023-03-29T12:43:22;6.33;;;3.03;;
21266;SDS011;10791;53.108;18.326;2023-03-29T12:48:24;4.33;;;2.80;;
21266;SDS011;10791;53.108;18.326;2023-03-29T12:53:35;7.23;;;2.93;;
21266;SDS011;10791;53.108;18.326;2023-03-29T13:04:16;4.83;;;2.80;;
21266;SDS011;10791;53.108;18.326;2023-03-29T13:09:25;4.63;;;2.53;;
21266;SDS011;10791;53.108;18.326;2023-03-29T13:14:34;4.43;;;2.30;;
21266;SDS011;10791;53.108;18.326;2023-03-29T13:30:32;6.57;;;2.90;;
21266;SDS011;10791;53.108;18.326;2023-03-29T13:35:58;6.30;;;2.40;;
21266;SDS011;10791;53.108;18.326;2023-03-29T13:41:04;5.90;;;2.43;;
21266;SDS011;10791;53.108;18.326;2023-03-29T13:46:40;5.63;;;2.50;;
21266;SDS011;10791;53.108;18.326;2023-03-29T13:51:59;5.07;;;2.80;;
21266;SDS011;10791;53.108;18.326;2023-03-29T13:57:15;6.17;;;2.77;;
21266;SDS011;10791;53.108;18.326;2023-03-29T14:07:45;4.77;;;3.17;;
21266;SDS011;10791;53.108;18.326;2023-03-29T14:12:52;7.07;;;3.73;;
21266;SDS011;10791;53.108;18.326;2023-03-29T14:17:58;10.27;;;2.83;;
21266;SDS011;10791;53.108;18.326;2023-03-29T14:23:09;9.37;;;3.10;;
21266;SDS011;10791;53.108;18.326;2023-03-29T14:28:24;8.07;;;4.00;;
21266;SDS011;10791;53.108;18.326;2023-03-29T14:33:32;5.63;;;3.27;;
21266;SDS011;10791;53.108;18.326;2023-03-29T14:38:39;7.90;;;3.50;;
21266;SDS011;10791;53.108;18.326;2023-03-29T14:43:43;6.70;;;3.50;;
21266;SDS011;10791;53.108;18.326;2023-03-29T14:48:48;6.53;;;4.80;;
21266;SDS011;10791;53.108;18.326;2023-03-29T14:53:52;7.77;;;3.00;;
21266;SDS011;10791;53.108;18.326;2023-03-29T14:58:55;8.40;;;3.97;;
21266;SDS011;10791;53.108;18.326;2023-03-29T15:04:06;8.83;;;3.43;;
21266;SDS011;10791;53.108;18.326;2023-03-29T15:09:14;8.93;;;4.57;;
21266;SDS011;10791;53.108;18.326;2023-03-29T15:14:21;7.03;;;4.50;;
21266;SDS011;10791;53.108;18.326;2023-03-29T15:19:26;8.53;;;4.03;;
21266;SDS011;10791;53.108;18.326;2023-03-29T15:24:30;8.27;;;3.97;;
21266;SDS011;10791;53.108;18.326;2023-03-29T15:29:39;15.43;;;4.43;;
21266;SDS011;10791;53.108;18.326;2023-03-29T15:34:44;10.77;;;5.33;;
21266;SDS011;10791;53.108;18.326;2023-03-29T15:39:48;9.87;;;4.53;;
21266;SDS011;10791;53.108;18.326;2023-03-29T15:44:54;20.93;;;7.37;;
21266;SDS011;10791;53.108;18.326;2023-03-29T15:49:58;23.37;;;10.03;;
21266;SDS011;10791;53.108;18.326;2023-03-29T15:55:01;26.13;;;11.67;;
21266;SDS011;10791;53.108;18.326;2023-03-29T16:00:05;10.30;;;4.57;;
21266;SDS011;10791;53.108;18.326;2023-03-29T16:05:09;11.43;;;5.10;;
21266;SDS011;10791;53.108;18.326;2023-03-29T16:10:14;10.03;;;4.50;;
21266;SDS011;10791;53.108;18.326;2023-03-29T16:15:18;8.40;;;4.77;;
21266;SDS011;10791;53.108;18.326;2023-03-29T16:20:24;7.43;;;4.37;;
21266;SDS011;10791;53.108;18.326;2023-03-29T16:25:28;10.07;;;5.53;;
21266;SDS011;10791;53.108;18.326;2023-03-29T16:30:32;10.47;;;5.43;;
21266;SDS011;10791;53.108;18.326;2023-03-29T16:35:37;12.73;;;5.23;;
21266;SDS011;10791;53.108;18.326;2023-03-29T16:40:41;11.47;;;5.30;;
21266;SDS011;10791;53.108;18.326;2023-03-29T16:45:45;12.13;;;4.70;;
21266;SDS011;10791;53.108;18.326;2023-03-29T16:50:48;11.43;;;4.63;;
21266;SDS011;10791;53.108;18.326;2023-03-29T16:55:52;10.03;;;4.77;;
21266;SDS011;10791;53.108;18.326;2023-03-29T17:00:56;11.83;;;5.07;;
21266;SDS011;10791;53.108;18.326;2023-03-29T17:06:00;12.20;;;5.60;;
21266;SDS011;10791;53.108;18.326;2023-03-29T17:11:06;32.47;;;12.30;;
21266;SDS011;10791;53.108;18.326;2023-03-29T17:16:09;30.13;;;14.50;;
21266;SDS011;10791;53.108;18.326;2023-03-29T17:21:13;21.10;;;10.77;;
21266;SDS011;10791;53.108;18.326;2023-03-29T17:26:17;15.60;;;8.67;;
21266;SDS011;10791;53.108;18.326;2023-03-29T17:31:21;24.70;;;12.60;;
21266;SDS011;10791;53.108;18.326;2023-03-29T17:36:25;31.23;;;15.17;;
21266;SDS011;10791;53.108;18.326;2023-03-29T17:41:31;28.63;;;14.83;;
21266;SDS011;10791;53.108;18.326;2023-03-29T17:46:34;30.40;;;12.97;;
21266;SDS011;10791;53.108;18.326;2023-03-29T17:51:42;34.03;;;16.07;;
21266;SDS011;10791;53.108;18.326;2023-03-29T17:56:48;37.50;;;16.83;;
21266;SDS011;10791;53.108;18.326;2023-03-29T18:01:52;25.40;;;13.20;;
21266;SDS011;10791;53.108;18.326;2023-03-29T18:06:56;30.50;;;10.30;;
21266;SDS011;10791;53.108;18.326;2023-03-29T18:12:01;43.27;;;19.83;;
21266;SDS011;10791;53.108;18.326;2023-03-29T18:17:06;62.10;;;25.93;;
21266;SDS011;10791;53.108;18.326;2023-03-29T18:22:10;37.50;;;16.67;;
21266;SDS011;10791;53.108;18.326;2023-03-29T18:27:15;31.60;;;15.13;;
21266;SDS011;10791;53.108;18.326;2023-03-29T18:32:21;49.23;;;19.97;;
21266;SDS011;10791;53.108;18.326;2023-03-29T18:37:26;39.97;;;16.90;;
21266;SDS011;10791;53.108;18.326;2023-03-29T18:42:32;25.47;;;12.83;;
21266;SDS011;10791;53.108;18.326;2023-03-29T18:47:37;21.00;;;10.43;;
21266;SDS011;10791;53.108;18.326;2023-03-29T18:52:42;19.03;;;8.63;;
21266;SDS011;10791;53.108;18.326;2023-03-29T18:57:48;17.53;;;8.50;;
21266;SDS011;10791;53.108;18.326;2023-03-29T19:02:54;16.90;;;8.53;;
21266;SDS011;10791;53.108;18.326;2023-03-29T19:08:00;24.57;;;11.70;;
21266;SDS011;10791;53.108;18.326;2023-03-29T19:13:08;20.77;;;10.77;;
21266;SDS011;10791;53.108;18.326;2023-03-29T19:18:13;22.00;;;10.07;;
21266;SDS011;10791;53.108;18.326;2023-03-29T19:23:19;20.40;;;9.83;;
21266;SDS011;10791;53.108;18.326;2023-03-29T19:28:32;18.70;;;9.20;;
21266;SDS011;10791;53.108;18.326;2023-03-29T19:33:39;17.90;;;8.83;;
21266;SDS011;10791;53.108;18.326;2023-03-29T19:38:46;19.90;;;9.83;;
21266;SDS011;10791;53.108;18.326;2023-03-29T19:43:52;15.07;;;8.30;;
21266;SDS011;10791;53.108;18.326;2023-03-29T19:48:58;19.83;;;8.57;;
21266;SDS011;10791;53.108;18.326;2023-03-29T19:54:06;19.13;;;8.77;;
21266;SDS011;10791;53.108;18.326;2023-03-29T19:59:13;19.70;;;9.13;;
21266;SDS011;10791;53.108;18.326;2023-03-29T20:04:20;16.60;;;8.67;;
21266;SDS011;10791;53.108;18.326;2023-03-29T20:09:26;25.60;;;11.57;;
21266;SDS011;10791;53.108;18.326;2023-03-29T20:14:36;22.03;;;11.43;;
21266;SDS011;10791;53.108;18.326;2023-03-29T20:19:43;25.60;;;12.20;;
21266;SDS011;10791;53.108;18.326;2023-03-29T20:24:47;24.43;;;13.37;;
21266;SDS011;10791;53.108;18.326;2023-03-29T20:29:51;18.63;;;11.27;;
21266;SDS011;10791;53.108;18.326;2023-03-29T20:34:56;17.37;;;9.30;;
21266;SDS011;10791;53.108;18.326;2023-03-29T20:40:00;19.10;;;11.20;;
21266;SDS011;10791;53.108;18.326;2023-03-29T20:45:07;19.47;;;11.40;;
21266;SDS011;10791;53.108;18.326;2023-03-29T20:50:20;28.77;;;13.50;;
21266;SDS011;10791;53.108;18.326;2023-03-29T20:55:28;23.80;;;13.00;;
21266;SDS011;10791;53.108;18.326;2023-03-29T21:00:38;24.83;;;12.80;;
21266;SDS011;10791;53.108;18.326;2023-03-29T21:05:42;24.33;;;12.10;;
21266;SDS011;10791;53.108;18.326;2023-03-29T21:10:48;27.57;;;14.10;;
21266;SDS011;10791;53.108;18.326;2023-03-29T21:15:53;25.67;;;13.13;;
21266;SDS011;10791;53.108;18.326;2023-03-29T21:20:57;25.80;;;13.57;;
21266;SDS011;10791;53.108;18.326;2023-03-29T21:26:02;25.83;;;13.43;;
21266;SDS011;10791;53.108;18.326;2023-03-29T21:31:06;28.63;;;13.80;;
21266;SDS011;10791;53.108;18.326;2023-03-29T21:36:11;26.80;;;14.03;;
21266;SDS011;10791;53.108;18.326;2023-03-29T21:41:15;22.37;;;13.00;;
21266;SDS011;10791;53.108;18.326;2023-03-29T21:46:20;30.40;;;14.17;;
21266;SDS011;10791;53.108;18.326;2023-03-29T21:51:23;26.40;;;13.33;;
21266;SDS011;10791;53.108;18.326;2023-03-29T21:56:27;27.70;;;15.07;;
21266;SDS011;10791;53.108;18.326;2023-03-29T22:01:31;28.90;;;15.13;;
21266;SDS011;10791;53.108;18.326;2023-03-29T22:06:34;26.40;;;13.93;;
21266;SDS011;10791;53.108;18.326;2023-03-29T22:11:37;24.43;;;13.43;;
21266;SDS011;10791;53.108;18.326;2023-03-29T22:16:41;27.67;;;13.30;;
21266;SDS011;10791;53.108;18.326;2023-03-29T22:21:45;25.13;;;12.90;;
21266;SDS011;10791;53.108;18.326;2023-03-29T22:26:50;29.43;;;12.73;;
21266;SDS011;10791;53.108;18.326;2023-03-29T22:31:53;26.40;;;13.07;;
21266;SDS011;10791;53.108;18.326;2023-03-29T22:36:57;24.33;;;13.17;;
21266;SDS011;10791;53.108;18.326;2023-03-29T22:42:00;30.57;;;14.77;;
21266;SDS011;10791;53.108;18.326;2023-03-29T22:47:04;31.00;;;14.70;;
21266;SDS011;10791;53.108;18.326;2023-03-29T22:52:08;30.47;;;13.93;;
21266;SDS011;10791;53.108;18.326;2023-03-29T22:57:11;28.63;;;13.40;;
21266;SDS011;10791;53.108;18.326;2023-03-29T23:02:15;28.33;;;14.07;;
21266;SDS011;10791;53.108;18.326;2023-03-29T23:07:18;28.73;;;13.33;;
21266;SDS011;10791;53.108;18.326;2023-03-29T23:12:22;28.43;;;13.70;;
21266;SDS011;10791;53.108;18.326;2023-03-29T23:17:25;20.63;;;12.27;;
21266;SDS011;10791;53.108;18.326;2023-03-29T23:22:29;22.67;;;11.63;;
21266;SDS011;10791;53.108;18.326;2023-03-29T23:27:32;21.17;;;11.17;;
21266;SDS011;10791;53.108;18.326;2023-03-29T23:32:36;16.77;;;10.77;;
21266;SDS011;10791;53.108;18.326;2023-03-29T23:37:39;20.27;;;10.53;;
21266;SDS011;10791;53.108;18.326;2023-03-29T23:42:43;19.53;;;11.10;;
21266;SDS011;10791;53.108;18.326;2023-03-29T23:47:48;18.20;;;10.20;;
21266;SDS011;10791;53.108;18.326;2023-03-29T23:52:53;21.47;;;10.70;;
21266;SDS011;10791;53.108;18.326;2023-03-29T23:57:56;21.80;;;11.23;;
